createdAt,value
2022-09-14T00:01:25.737Z,4.45
2022-09-14T00:06:48.627Z,2.17
2022-09-14T00:12:10.746Z,2.10
2022-09-14T00:17:32.619Z,2.60
2022-09-14T00:22:54.629Z,2.78
2022-09-14T00:28:16.441Z,4.47
2022-09-14T00:33:38.417Z,3.58
2022-09-14T00:39:00.242Z,4.20
2022-09-14T00:44:45.299Z,5.72
2022-09-14T00:50:07.779Z,6.15
2022-09-14T00:55:29.693Z,4.40
2022-09-14T01:00:51.523Z,3.50
2022-09-14T01:06:31.671Z,4.43
2022-09-14T01:12:20.019Z,7.40
2022-09-14T01:18:00.574Z,5.32
2022-09-14T01:23:47.284Z,4.95
2022-09-14T01:29:16.521Z,6.00
2022-09-14T01:34:59.541Z,5.30
2022-09-14T01:40:43.883Z,6.40
2022-09-14T01:46:15.008Z,7.15
2022-09-14T01:51:47.874Z,11.02
2022-09-14T01:57:18.165Z,8.02
2022-09-14T02:02:44.601Z,8.07
2022-09-14T02:13:29.284Z,9.15
2022-09-14T02:18:51.373Z,10.48
2022-09-14T02:24:14.308Z,10.02
2022-09-14T02:29:36.548Z,11.02
2022-09-14T02:35:18.173Z,12.95
2022-09-14T02:40:56.304Z,15.05
2022-09-14T02:46:33.149Z,14.35
2022-09-14T02:51:54.973Z,14.68
2022-09-14T02:57:17.039Z,16.42
2022-09-14T03:02:38.832Z,17.15
2022-09-14T03:08:01.620Z,19.88
2022-09-14T03:13:23.902Z,21.63
2022-09-14T03:18:45.760Z,31.67
2022-09-14T03:24:07.595Z,22.98
2022-09-14T03:29:29.369Z,23.92
2022-09-14T03:34:51.231Z,24.80
2022-09-14T03:40:19.289Z,24.10
2022-09-14T03:45:43.347Z,24.55
2022-09-14T03:51:06.985Z,25.15
2022-09-14T03:56:28.790Z,24.63
2022-09-14T04:01:50.717Z,25.75
2022-09-14T04:07:12.564Z,23.45
2022-09-14T04:12:38.465Z,24.77
2022-09-14T04:18:00.290Z,25.43
2022-09-14T04:23:22.239Z,22.30
2022-09-14T04:28:44.601Z,23.50
2022-09-14T04:34:07.132Z,23.13
2022-09-14T04:39:28.889Z,24.38
2022-09-14T04:44:50.739Z,23.98
2022-09-14T04:50:12.581Z,21.25
2022-09-14T04:55:34.413Z,19.20
2022-09-14T05:01:02.602Z,19.02
2022-09-14T05:06:30.209Z,20.23
2022-09-14T05:11:52.069Z,20.30
2022-09-14T05:17:13.928Z,19.38
2022-09-14T05:22:35.749Z,17.67
2022-09-14T05:27:57.593Z,19.23
2022-09-14T05:33:20.023Z,17.52
2022-09-14T05:38:42.729Z,15.63
2022-09-14T05:44:05.768Z,14.55
2022-09-14T05:49:27.591Z,13.40
2022-09-14T05:54:49.615Z,13.45
2022-09-14T06:00:12.021Z,12.85
2022-09-14T06:05:33.837Z,14.63
2022-09-14T06:10:55.654Z,13.32
2022-09-14T06:16:20.448Z,14.15
2022-09-14T06:21:42.622Z,15.15
2022-09-14T06:27:04.619Z,17.92
2022-09-14T06:32:26.477Z,19.50
2022-09-14T06:37:48.248Z,20.58
2022-09-14T06:43:10.044Z,22.98
2022-09-14T06:48:34.668Z,21.38
2022-09-14T06:53:58.231Z,23.67
2022-09-14T06:59:20.304Z,21.77
2022-09-14T07:04:42.150Z,22.98
2022-09-14T07:10:04.327Z,23.48
2022-09-14T07:15:26.457Z,22.80
2022-09-14T07:20:49.637Z,18.77
2022-09-14T07:26:23.373Z,19.40
2022-09-14T07:31:50.732Z,17.10
2022-09-14T07:37:12.879Z,17.13
2022-09-14T07:42:36.548Z,13.35
2022-09-14T07:47:58.356Z,13.15
2022-09-14T07:53:21.398Z,15.07
2022-09-14T07:58:44.461Z,13.32
2022-09-14T08:04:06.637Z,11.73
2022-09-14T08:09:28.491Z,10.25
2022-09-14T08:14:50.437Z,9.35
2022-09-14T08:20:12.196Z,9.85
2022-09-14T08:25:34.013Z,8.50
2022-09-14T08:30:55.860Z,6.75
2022-09-14T08:36:19.974Z,7.68
2022-09-14T08:41:59.192Z,8.85
2022-09-14T08:47:27.312Z,7.05
2022-09-14T08:52:54.345Z,8.95
2022-09-14T08:58:43.990Z,8.55
2022-09-14T09:04:33.230Z,8.77
2022-09-14T09:09:57.668Z,5.38
2022-09-14T09:15:32.538Z,7.47
2022-09-14T09:21:23.833Z,4.90
2022-09-14T09:26:45.612Z,7.78
2022-09-14T09:32:23.438Z,7.88
2022-09-14T09:37:45.662Z,7.68
2022-09-14T09:43:21.176Z,6.38
2022-09-14T09:48:50.828Z,7.70
2022-09-14T09:54:12.582Z,7.55
2022-09-14T09:59:39.793Z,7.10
2022-09-14T10:05:10.342Z,7.90
2022-09-14T10:10:34.900Z,5.28
2022-09-14T10:16:17.623Z,9.07
2022-09-14T10:22:21.847Z,5.97
2022-09-14T10:27:55.003Z,7.80
2022-09-14T10:33:17.231Z,7.45
2022-09-14T10:38:44.525Z,8.27
2022-09-14T10:44:22.288Z,5.65
2022-09-14T10:50:21.406Z,6.53
2022-09-14T10:55:47.460Z,7.43
2022-09-14T11:01:18.200Z,7.45
2022-09-14T11:07:01.620Z,7.68
2022-09-14T11:12:36.240Z,4.45
2022-09-14T11:18:06.741Z,6.00
2022-09-14T11:24:03.521Z,5.60
2022-09-14T11:29:37.537Z,5.70
2022-09-14T11:35:11.675Z,3.28
2022-09-14T11:40:40.275Z,9.10
2022-09-14T11:46:32.541Z,4.32
2022-09-14T11:52:03.832Z,5.78
2022-09-14T11:57:31.038Z,5.28
2022-09-14T12:03:34.584Z,4.15
2022-09-14T12:09:16.588Z,3.67
2022-09-14T12:14:40.527Z,4.50
2022-09-14T12:20:28.237Z,6.32
2022-09-14T12:25:58.504Z,3.53
2022-09-14T12:31:34.456Z,5.75
2022-09-14T12:36:57.305Z,4.18
2022-09-14T12:42:30.300Z,7.80
2022-09-14T12:47:52.354Z,4.38
2022-09-14T12:53:33.489Z,5.00
2022-09-14T12:59:29.273Z,3.92
2022-09-14T13:04:56.553Z,3.00
2022-09-14T13:10:32.738Z,3.55
2022-09-14T13:15:57.892Z,4.88
2022-09-14T13:21:22.865Z,5.55
2022-09-14T13:26:44.773Z,5.80
2022-09-14T13:32:06.814Z,3.65
2022-09-14T13:37:29.036Z,4.55
2022-09-14T13:42:51.214Z,5.35
2022-09-14T13:48:15.628Z,7.57
2022-09-14T13:53:50.692Z,4.20
2022-09-14T13:59:21.090Z,6.78
2022-09-14T14:04:48.401Z,6.07
2022-09-14T14:10:23.812Z,5.55
2022-09-14T14:21:35.547Z,6.70
2022-09-14T14:26:58.091Z,4.68
2022-09-14T14:32:19.919Z,6.53
2022-09-14T14:37:41.721Z,5.38
2022-09-14T14:43:05.055Z,4.82
2022-09-14T14:48:28.711Z,5.30
2022-09-14T14:53:50.454Z,3.80
2022-09-14T14:59:21.199Z,5.70
2022-09-14T15:04:42.978Z,6.25
2022-09-14T15:10:06.385Z,4.00
2022-09-14T15:15:28.219Z,4.60
2022-09-14T15:20:49.985Z,4.78
2022-09-14T15:26:11.732Z,5.07
2022-09-14T15:31:33.589Z,6.85
2022-09-14T15:36:55.531Z,3.40
2022-09-14T15:42:18.667Z,6.63
2022-09-14T15:47:42.461Z,6.32
2022-09-14T15:53:04.202Z,7.45
2022-09-14T15:58:26.181Z,4.57
2022-09-14T16:03:48.199Z,6.15
2022-09-14T16:09:11.498Z,5.57
2022-09-14T16:14:33.592Z,5.45
2022-09-14T16:19:55.656Z,4.93
2022-09-14T16:25:17.583Z,5.28
2022-09-14T16:30:39.322Z,4.32
2022-09-14T16:36:13.062Z,4.47
2022-09-14T16:41:35.299Z,4.80
2022-09-14T16:46:58.189Z,8.60
2022-09-14T16:52:20.128Z,9.13
2022-09-14T16:57:41.920Z,6.78
2022-09-14T17:03:03.766Z,7.53
2022-09-14T17:08:25.541Z,5.75
2022-09-14T17:13:47.332Z,6.75
2022-09-14T17:19:10.938Z,7.47
2022-09-14T17:24:32.765Z,7.65
2022-09-14T17:29:54.505Z,6.03
2022-09-14T17:35:16.593Z,5.60
2022-09-14T17:40:38.425Z,6.47
2022-09-14T17:46:01.048Z,8.82
2022-09-14T17:51:25.033Z,9.68
2022-09-14T17:56:47.444Z,7.20
2022-09-14T18:02:09.758Z,9.10
2022-09-14T18:07:31.593Z,5.70
2022-09-14T18:12:53.400Z,7.18
2022-09-14T18:18:15.548Z,7.40
2022-09-14T18:23:38.194Z,11.60
2022-09-14T18:29:00.409Z,8.77
2022-09-14T18:34:25.500Z,8.82
2022-09-14T18:39:47.422Z,10.75
2022-09-14T18:45:09.734Z,10.15
2022-09-14T18:50:31.617Z,9.93
2022-09-14T18:55:53.363Z,13.63
2022-09-14T19:01:15.602Z,13.25
2022-09-14T19:06:39.171Z,13.43
2022-09-14T19:12:01.555Z,10.82
2022-09-14T19:17:23.564Z,10.65
2022-09-14T19:22:45.571Z,14.80
2022-09-14T19:28:07.614Z,15.45
2022-09-14T19:33:30.754Z,10.88
2022-09-14T19:38:52.626Z,13.80
2022-09-14T19:44:15.276Z,67.00
2022-09-14T19:49:37.098Z,13.52
2022-09-14T19:54:58.892Z,15.13
2022-09-14T20:00:20.654Z,16.88
2022-09-14T20:05:42.416Z,10.68
2022-09-14T20:11:09.699Z,14.18
2022-09-14T20:16:37.157Z,12.50
2022-09-14T20:21:58.933Z,15.88
2022-09-14T20:27:20.737Z,13.57
2022-09-14T20:32:42.504Z,10.98
2022-09-14T20:38:04.260Z,11.40
2022-09-14T20:43:26.838Z,15.90
2022-09-14T20:48:49.545Z,14.10
2022-09-14T20:54:14.639Z,11.15
2022-09-14T20:59:36.422Z,11.95
2022-09-14T21:04:58.197Z,12.50
2022-09-14T21:10:20.213Z,13.35
2022-09-14T21:15:42.055Z,12.18
2022-09-14T21:21:06.153Z,11.07
2022-09-14T21:26:29.687Z,12.90
2022-09-14T21:31:52.406Z,11.35
2022-09-14T21:37:14.565Z,12.10
2022-09-14T21:42:36.335Z,9.95
2022-09-14T21:47:58.083Z,12.60
2022-09-14T21:53:20.107Z,12.85
2022-09-14T21:58:42.005Z,13.10
2022-09-14T22:04:04.665Z,14.23
2022-09-14T22:09:28.357Z,10.95
2022-09-14T22:14:50.137Z,10.45
2022-09-14T22:20:11.902Z,9.30
2022-09-14T22:25:33.660Z,8.32
2022-09-14T22:30:55.475Z,11.57
2022-09-14T22:36:17.467Z,10.73
2022-09-14T22:41:39.941Z,11.07
2022-09-14T22:47:01.725Z,12.32
2022-09-14T22:52:23.646Z,10.93
2022-09-14T22:57:45.444Z,14.30
2022-09-14T23:03:08.669Z,15.68
2022-09-14T23:08:31.300Z,14.23
2022-09-14T23:13:53.352Z,13.02
2022-09-14T23:19:17.439Z,21.80
2022-09-14T23:24:39.189Z,12.50
2022-09-14T23:30:01.328Z,14.45
2022-09-14T23:35:23.127Z,10.90
2022-09-14T23:40:44.993Z,12.65
2022-09-14T23:46:06.815Z,11.43
2022-09-14T23:51:28.689Z,14.60
2022-09-14T23:56:50.508Z,14.82
